Haramachi Maru — JBML — position and weather

sailwx.info

Track history (hours):
 
Tides and Currents Weather Stations Pressure Air Temp Water Temp Dewpoint Dewpoint Depression Visibility Wind Speed Wind Dir Waves Ship Positions

Haramachi Maru

Last reported at 2015-May-19 14:20 UTC. Time now 2015-May-30 00:29 UTC.
Position S 26°39' E 153°22'.
Warning: this ship's position is 10 days out of date.

Length 239.8 m; beam 43 m.

Type: Cargo ship. MMSI: 431106000.

Date/timePositionNaut miles runAvg speedWind from/ knotsBaromVisibWave heightAir tempDewpointWater temp
2015-May-19 14:20S 26°39' E 153°22'910.9
2015-May-19 13:32S 26°42' E 153°12'8 7.8
2015-May-19 12:33S 26°49' E 153°10'9 9.2
2015-May-19 11:33S 26°58' E 153°14'9 9.3
2015-May-19 10:34S 27°06' E 153°19'9 8.9
2015-May-19 09:33S 27°15' E 153°19'10 9.7
2015-May-19 08:34S 27°21' E 153°11'3 2.7
2015-May-19 07:32S 27°23' E 153°10'0 0.0
2015-May-19 06:29S 27°23' E 153°10'0 0.0
2015-May-19 05:32S 27°23' E 153°10'0 0.0
2015-May-19 04:32S 27°23' E 153°10'0 0.1
2015-May-19 03:32S 27°23' E 153°09'0 0.1
2015-May-19 02:32S 27°23' E 153°10'0 0.0
2015-May-19 01:29S 27°23' E 153°10'0 0.0
2015-May-19 00:32S 27°23' E 153°10'0 0.0
2015-May-18 23:32S 27°23' E 153°10'0 0.1
2015-May-18 22:32S 27°23' E 153°09'0 0.1
2015-May-18 21:32S 27°23' E 153°10'0 0.0
2015-May-18 20:32S 27°23' E 153°10'0 0.0
2015-May-18 19:32S 27°23' E 153°10'0 0.0
2015-May-18 18:32S 27°23' E 153°10'0 0.1
2015-May-18 17:32S 27°23' E 153°09'0 0.1
2015-May-18 16:32S 27°23' E 153°10'0 0.0
2015-May-18 15:32S 27°23' E 153°10'0 0.0
2015-May-18 14:32S 27°23' E 153°10'0 0.0
2015-May-18 13:32S 27°23' E 153°10'0 0.1
2015-May-18 12:29S 27°23' E 153°09'0 0.0
2015-May-18 11:32S 27°23' E 153°09'0 0.1
2015-May-18 10:32S 27°23' E 153°10'0 0.0
2015-May-18 09:32S 27°23' E 153°10'0 0.1
2015-May-18 08:32S 27°23' E 153°09'0 0.1
2015-May-18 07:32S 27°23' E 153°10'0 0.0
2015-May-18 06:32S 27°23' E 153°10'0 0.0
2015-May-18 05:26S 27°23' E 153°10'0 0.0
2015-May-18 04:29S 27°23' E 153°10'0 0.1
2015-May-18 03:32S 27°23' E 153°09'0 0.1
2015-May-18 02:32S 27°23' E 153°10'0 0.0
2015-May-18 01:32S 27°23' E 153°10'0 0.0
2015-May-18 00:32S 27°23' E 153°10'0 0.0
2015-May-17 23:32S 27°23' E 153°10'0 0.0
2015-May-17 22:32S 27°23' E 153°10'0 0.0
2015-May-17 21:32S 27°23' E 153°10'0 0.1
2015-May-17 20:32S 27°23' E 153°09'19 1.7
2015-May-17 09:33S 27°08' E 153°21'1312.6
2015-May-17 08:33S 26°57' E 153°13'1010.4
2015-May-17 07:33S 26°47' E 153°11'6 6.3
2015-May-17 06:33S 26°41' E 153°14'4 3.6
2015-May-17 05:33S 26°40' E 153°18'3 3.4
2015-May-17 04:33S 26°38' E 153°20'  
Track history (hours):
 
Tides and Currents Weather Stations Pressure Air Temp Water Temp Dewpoint Dewpoint Depression Visibility Wind Speed Wind Dir Waves Ship Positions

Haramachi Maru

Last reported at 2015-May-19 14:20 UTC. Time now 2015-May-30 00:29 UTC.
Position S 26°39' E 153°22'.
Warning: this ship's position is 10 days out of date.

Length 239.8 m; beam 43 m.

Type: Cargo ship. MMSI: 431106000.

Date/timePositionNaut miles runAvg speedWind from/ knotsBaromVisibWave heightAir tempDewpointWater temp
2015-May-19 14:20S 26°39' E 153°22'910.9
2015-May-19 13:32S 26°42' E 153°12'8 7.8
2015-May-19 12:33S 26°49' E 153°10'9 9.2
2015-May-19 11:33S 26°58' E 153°14'9 9.3
2015-May-19 10:34S 27°06' E 153°19'9 8.9
2015-May-19 09:33S 27°15' E 153°19'10 9.7
2015-May-19 08:34S 27°21' E 153°11'3 2.7
2015-May-19 07:32S 27°23' E 153°10'0 0.0
2015-May-19 06:29S 27°23' E 153°10'0 0.0
2015-May-19 05:32S 27°23' E 153°10'0 0.0
2015-May-19 04:32S 27°23' E 153°10'0 0.1
2015-May-19 03:32S 27°23' E 153°09'0 0.1
2015-May-19 02:32S 27°23' E 153°10'0 0.0
2015-May-19 01:29S 27°23' E 153°10'0 0.0
2015-May-19 00:32S 27°23' E 153°10'0 0.0
2015-May-18 23:32S 27°23' E 153°10'0 0.1
2015-May-18 22:32S 27°23' E 153°09'0 0.1
2015-May-18 21:32S 27°23' E 153°10'0 0.0
2015-May-18 20:32S 27°23' E 153°10'0 0.0
2015-May-18 19:32S 27°23' E 153°10'0 0.0
2015-May-18 18:32S 27°23' E 153°10'0 0.1
2015-May-18 17:32S 27°23' E 153°09'0 0.1
2015-May-18 16:32S 27°23' E 153°10'0 0.0
2015-May-18 15:32S 27°23' E 153°10'0 0.0
2015-May-18 14:32S 27°23' E 153°10'0 0.0
2015-May-18 13:32S 27°23' E 153°10'0 0.1
2015-May-18 12:29S 27°23' E 153°09'0 0.0
2015-May-18 11:32S 27°23' E 153°09'0 0.1
2015-May-18 10:32S 27°23' E 153°10'0 0.0
2015-May-18 09:32S 27°23' E 153°10'0 0.1
2015-May-18 08:32S 27°23' E 153°09'0 0.1
2015-May-18 07:32S 27°23' E 153°10'0 0.0
2015-May-18 06:32S 27°23' E 153°10'0 0.0
2015-May-18 05:26S 27°23' E 153°10'0 0.0
2015-May-18 04:29S 27°23' E 153°10'0 0.1
2015-May-18 03:32S 27°23' E 153°09'0 0.1
2015-May-18 02:32S 27°23' E 153°10'0 0.0
2015-May-18 01:32S 27°23' E 153°10'0 0.0
2015-May-18 00:32S 27°23' E 153°10'0 0.0
2015-May-17 23:32S 27°23' E 153°10'0 0.0
2015-May-17 22:32S 27°23' E 153°10'0 0.0
2015-May-17 21:32S 27°23' E 153°10'0 0.1
2015-May-17 20:32S 27°23' E 153°09'19 1.7
2015-May-17 09:33S 27°08' E 153°21'1312.6
2015-May-17 08:33S 26°57' E 153°13'1010.4
2015-May-17 07:33S 26°47' E 153°11'6 6.3
2015-May-17 06:33S 26°41' E 153°14'4 3.6
2015-May-17 05:33S 26°40' E 153°18'3 3.4
2015-May-17 04:33S 26°38' E 153°20'  

Dump ship's entire track history